Mt Lake Park, Maryland
Current Conditions -  °F | °C
As of 12:20 PM on Sunday 21 Dec 2014 (Local Time) from K2G4 Reporting Station
Clear Clear  
Wind Chill: 32°   Ceiling: Unl
Heat Index: 32°   Visibility: 10mi
Dew Point: 28°   Wind: 3mph
Humidity: 87%   Direction: 200°SSW
Pressure: 30.18"   Gusts: NA
Location:  39.3804°N, 79.3888°W
Report Text: K2G4 211720Z AUTO 20003KT 10SM CLR 00/M02 A3018 RMK AO1
Loading
Personal Weather Stations






























Interactive Weather Map New forecast layout! Learn more

10-Day Weather Forecast

Advertisements
Track Severe Weather on mobile